sensor_id;sensor_type;location;lat;lon;timestamp;P1;durP1;ratioP1;P2;durP2;ratioP2
44000;SDS011;29660;42.892;24.710;2023-04-06T00:01:19;25.95;;;18.70;;
44000;SDS011;29660;42.892;24.710;2023-04-06T00:06:42;56.67;;;34.85;;
44000;SDS011;29660;42.892;24.710;2023-04-06T00:12:04;62.15;;;37.67;;
44000;SDS011;29660;42.892;24.710;2023-04-06T00:17:27;52.10;;;32.58;;
44000;SDS011;29660;42.892;24.710;2023-04-06T00:22:49;51.35;;;32.30;;
44000;SDS011;29660;42.892;24.710;2023-04-06T00:28:12;34.33;;;24.55;;
44000;SDS011;29660;42.892;24.710;2023-04-06T00:33:34;39.20;;;25.38;;
44000;SDS011;29660;42.892;24.710;2023-04-06T00:38:56;25.73;;;21.27;;
44000;SDS011;29660;42.892;24.710;2023-04-06T00:44:19;26.33;;;21.40;;
44000;SDS011;29660;42.892;24.710;2023-04-06T00:49:42;28.55;;;21.33;;
44000;SDS011;29660;42.892;24.710;2023-04-06T00:55:04;24.67;;;20.52;;
44000;SDS011;29660;42.892;24.710;2023-04-06T01:00:32;29.27;;;23.50;;
44000;SDS011;29660;42.892;24.710;2023-04-06T01:05:56;30.85;;;23.95;;
44000;SDS011;29660;42.892;24.710;2023-04-06T01:11:27;30.75;;;24.88;;
44000;SDS011;29660;42.892;24.710;2023-04-06T01:16:50;21.40;;;17.80;;
44000;SDS011;29660;42.892;24.710;2023-04-06T01:22:18;21.45;;;17.40;;
44000;SDS011;29660;42.892;24.710;2023-04-06T01:27:56;25.75;;;19.65;;
44000;SDS011;29660;42.892;24.710;2023-04-06T01:33:33;23.33;;;19.23;;
44000;SDS011;29660;42.892;24.710;2023-04-06T01:39:00;26.80;;;20.50;;
44000;SDS011;29660;42.892;24.710;2023-04-06T01:44:28;23.75;;;19.45;;
44000;SDS011;29660;42.892;24.710;2023-04-06T01:50:01;22.92;;;18.67;;
44000;SDS011;29660;42.892;24.710;2023-04-06T01:55:31;25.40;;;20.83;;
44000;SDS011;29660;42.892;24.710;2023-04-06T02:01:12;34.97;;;27.70;;
44000;SDS011;29660;42.892;24.710;2023-04-06T02:06:47;36.95;;;27.40;;
44000;SDS011;29660;42.892;24.710;2023-04-06T02:12:14;31.52;;;26.20;;
44000;SDS011;29660;42.892;24.710;2023-04-06T02:17:37;37.95;;;28.55;;
44000;SDS011;29660;42.892;24.710;2023-04-06T02:22:59;34.65;;;23.40;;
44000;SDS011;29660;42.892;24.710;2023-04-06T02:28:22;29.75;;;24.50;;
44000;SDS011;29660;42.892;24.710;2023-04-06T02:33:44;34.15;;;26.88;;
44000;SDS011;29660;42.892;24.710;2023-04-06T02:39:08;30.98;;;23.83;;
44000;SDS011;29660;42.892;24.710;2023-04-06T02:44:32;28.58;;;23.30;;
44000;SDS011;29660;42.892;24.710;2023-04-06T02:49:54;22.83;;;19.30;;
44000;SDS011;29660;42.892;24.710;2023-04-06T02:55:16;24.77;;;19.27;;
44000;SDS011;29660;42.892;24.710;2023-04-06T03:00:40;37.03;;;27.35;;
44000;SDS011;29660;42.892;24.710;2023-04-06T03:06:03;31.23;;;24.65;;
44000;SDS011;29660;42.892;24.710;2023-04-06T03:11:26;31.75;;;26.63;;
44000;SDS011;29660;42.892;24.710;2023-04-06T03:16:48;40.58;;;29.67;;
44000;SDS011;29660;42.892;24.710;2023-04-06T03:22:15;33.47;;;25.35;;
44000;SDS011;29660;42.892;24.710;2023-04-06T03:27:39;28.63;;;21.75;;
44000;SDS011;29660;42.892;24.710;2023-04-06T03:33:06;33.58;;;26.30;;
44000;SDS011;29660;42.892;24.710;2023-04-06T03:38:36;31.63;;;24.65;;
44000;SDS011;29660;42.892;24.710;2023-04-06T03:44:05;32.20;;;25.73;;
44000;SDS011;29660;42.892;24.710;2023-04-06T03:49:27;37.25;;;27.92;;
44000;SDS011;29660;42.892;24.710;2023-04-06T03:55:08;58.40;;;36.78;;
44000;SDS011;29660;42.892;24.710;2023-04-06T04:00:31;32.97;;;25.42;;
44000;SDS011;29660;42.892;24.710;2023-04-06T04:05:54;31.48;;;26.15;;
44000;SDS011;29660;42.892;24.710;2023-04-06T04:11:20;44.70;;;28.10;;
44000;SDS011;29660;42.892;24.710;2023-04-06T04:16:49;37.47;;;25.63;;
44000;SDS011;29660;42.892;24.710;2023-04-06T04:22:29;35.00;;;23.83;;
44000;SDS011;29660;42.892;24.710;2023-04-06T04:27:51;29.48;;;20.20;;
44000;SDS011;29660;42.892;24.710;2023-04-06T04:33:15;32.88;;;25.02;;
44000;SDS011;29660;42.892;24.710;2023-04-06T04:38:38;33.33;;;26.05;;
44000;SDS011;29660;42.892;24.710;2023-04-06T04:44:00;32.75;;;26.48;;
44000;SDS011;29660;42.892;24.710;2023-04-06T04:49:23;34.67;;;27.88;;
44000;SDS011;29660;42.892;24.710;2023-04-06T04:54:46;42.08;;;31.88;;
44000;SDS011;29660;42.892;24.710;2023-04-06T05:00:17;54.67;;;37.97;;
44000;SDS011;29660;42.892;24.710;2023-04-06T05:05:40;63.55;;;47.58;;
44000;SDS011;29660;42.892;24.710;2023-04-06T05:11:02;63.97;;;47.75;;
44000;SDS011;29660;42.892;24.710;2023-04-06T05:16:30;50.95;;;33.92;;
44000;SDS011;29660;42.892;24.710;2023-04-06T05:21:52;48.13;;;31.38;;
44000;SDS011;29660;42.892;24.710;2023-04-06T05:27:15;51.58;;;35.72;;
44000;SDS011;29660;42.892;24.710;2023-04-06T05:32:37;55.25;;;39.53;;
44000;SDS011;29660;42.892;24.710;2023-04-06T05:38:00;55.67;;;41.20;;
44000;SDS011;29660;42.892;24.710;2023-04-06T05:43:22;108.95;;;92.57;;
44000;SDS011;29660;42.892;24.710;2023-04-06T05:48:48;75.53;;;58.63;;
44000;SDS011;29660;42.892;24.710;2023-04-06T05:54:14;58.50;;;43.67;;
44000;SDS011;29660;42.892;24.710;2023-04-06T05:59:37;62.40;;;48.35;;
44000;SDS011;29660;42.892;24.710;2023-04-06T06:05:00;61.80;;;44.28;;
44000;SDS011;29660;42.892;24.710;2023-04-06T06:10:22;67.68;;;47.00;;
44000;SDS011;29660;42.892;24.710;2023-04-06T06:15:46;62.80;;;46.53;;
44000;SDS011;29660;42.892;24.710;2023-04-06T06:21:08;74.20;;;51.97;;
44000;SDS011;29660;42.892;24.710;2023-04-06T06:26:32;88.60;;;61.08;;
44000;SDS011;29660;42.892;24.710;2023-04-06T06:31:54;83.38;;;57.20;;
44000;SDS011;29660;42.892;24.710;2023-04-06T06:37:18;62.50;;;45.20;;
44000;SDS011;29660;42.892;24.710;2023-04-06T06:42:42;64.15;;;46.20;;
44000;SDS011;29660;42.892;24.710;2023-04-06T06:48:30;62.33;;;41.90;;
44000;SDS011;29660;42.892;24.710;2023-04-06T06:53:52;74.28;;;54.80;;
44000;SDS011;29660;42.892;24.710;2023-04-06T06:59:14;46.95;;;35.88;;
44000;SDS011;29660;42.892;24.710;2023-04-06T07:04:38;79.00;;;59.35;;
44000;SDS011;29660;42.892;24.710;2023-04-06T07:10:00;49.55;;;38.53;;
44000;SDS011;29660;42.892;24.710;2023-04-06T07:15:23;44.90;;;30.83;;
44000;SDS011;29660;42.892;24.710;2023-04-06T07:20:45;41.92;;;28.45;;
44000;SDS011;29660;42.892;24.710;2023-04-06T07:26:09;33.13;;;26.17;;
44000;SDS011;29660;42.892;24.710;2023-04-06T07:31:31;14.15;;;10.70;;
44000;SDS011;29660;42.892;24.710;2023-04-06T07:36:54;29.38;;;17.13;;
44000;SDS011;29660;42.892;24.710;2023-04-06T07:42:16;9.55;;;6.85;;
44000;SDS011;29660;42.892;24.710;2023-04-06T07:47:39;10.68;;;8.18;;
44000;SDS011;29660;42.892;24.710;2023-04-06T07:53:01;18.52;;;11.23;;
44000;SDS011;29660;42.892;24.710;2023-04-06T07:58:25;21.63;;;13.90;;
44000;SDS011;29660;42.892;24.710;2023-04-06T08:03:47;28.90;;;17.10;;
44000;SDS011;29660;42.892;24.710;2023-04-06T08:09:10;17.27;;;12.52;;
44000;SDS011;29660;42.892;24.710;2023-04-06T08:14:33;17.35;;;12.77;;
44000;SDS011;29660;42.892;24.710;2023-04-06T08:19:55;13.43;;;9.68;;
44000;SDS011;29660;42.892;24.710;2023-04-06T08:25:36;13.73;;;10.35;;
44000;SDS011;29660;42.892;24.710;2023-04-06T08:30:58;8.35;;;6.78;;
44000;SDS011;29660;42.892;24.710;2023-04-06T08:36:20;8.48;;;6.63;;
44000;SDS011;29660;42.892;24.710;2023-04-06T08:41:44;12.32;;;7.00;;
44000;SDS011;29660;42.892;24.710;2023-04-06T08:47:07;9.82;;;7.93;;
44000;SDS011;29660;42.892;24.710;2023-04-06T08:52:29;15.48;;;12.43;;
44000;SDS011;29660;42.892;24.710;2023-04-06T09:04:03;24.40;;;17.45;;
44000;SDS011;29660;42.892;24.710;2023-04-06T09:09:31;7.60;;;6.57;;
44000;SDS011;29660;42.892;24.710;2023-04-06T09:14:53;11.32;;;8.02;;
44000;SDS011;29660;42.892;24.710;2023-04-06T09:20:23;17.40;;;9.48;;
44000;SDS011;29660;42.892;24.710;2023-04-06T09:25:50;10.15;;;7.07;;
44000;SDS011;29660;42.892;24.710;2023-04-06T09:31:13;15.95;;;11.38;;
44000;SDS011;29660;42.892;24.710;2023-04-06T09:36:36;9.75;;;8.15;;
44000;SDS011;29660;42.892;24.710;2023-04-06T09:42:03;5.63;;;5.03;;
44000;SDS011;29660;42.892;24.710;2023-04-06T09:47:26;8.02;;;6.40;;
44000;SDS011;29660;42.892;24.710;2023-04-06T09:52:50;8.02;;;6.40;;
44000;SDS011;29660;42.892;24.710;2023-04-06T09:58:16;10.20;;;7.18;;
44000;SDS011;29660;42.892;24.710;2023-04-06T10:09:14;7.07;;;5.47;;
44000;SDS011;29660;42.892;24.710;2023-04-06T10:14:38;12.70;;;6.60;;
44000;SDS011;29660;42.892;24.710;2023-04-06T10:20:09;5.65;;;4.43;;
44000;SDS011;29660;42.892;24.710;2023-04-06T10:25:35;8.15;;;6.05;;
44000;SDS011;29660;42.892;24.710;2023-04-06T10:31:00;9.50;;;7.43;;
44000;SDS011;29660;42.892;24.710;2023-04-06T10:36:24;9.93;;;7.28;;
44000;SDS011;29660;42.892;24.710;2023-04-06T10:41:51;16.80;;;8.82;;
44000;SDS011;29660;42.892;24.710;2023-04-06T10:47:17;5.60;;;4.40;;
44000;SDS011;29660;42.892;24.710;2023-04-06T10:52:39;14.77;;;8.93;;
44000;SDS011;29660;42.892;24.710;2023-04-06T10:58:01;7.55;;;5.20;;
44000;SDS011;29660;42.892;24.710;2023-04-06T11:03:46;14.43;;;11.23;;
44000;SDS011;29660;42.892;24.710;2023-04-06T11:09:09;12.70;;;9.65;;
44000;SDS011;29660;42.892;24.710;2023-04-06T11:14:32;12.52;;;9.38;;
44000;SDS011;29660;42.892;24.710;2023-04-06T11:19:54;5.85;;;4.97;;
44000;SDS011;29660;42.892;24.710;2023-04-06T11:25:17;5.05;;;4.55;;
44000;SDS011;29660;42.892;24.710;2023-04-06T11:30:40;8.90;;;7.60;;
44000;SDS011;29660;42.892;24.710;2023-04-06T11:36:02;11.15;;;8.02;;
44000;SDS011;29660;42.892;24.710;2023-04-06T11:41:24;10.88;;;4.75;;
44000;SDS011;29660;42.892;24.710;2023-04-06T11:46:51;4.88;;;4.00;;
44000;SDS011;29660;42.892;24.710;2023-04-06T11:57:38;11.85;;;9.25;;
44000;SDS011;29660;42.892;24.710;2023-04-06T12:03:00;8.65;;;5.78;;
44000;SDS011;29660;42.892;24.710;2023-04-06T12:08:22;24.58;;;16.88;;
44000;SDS011;29660;42.892;24.710;2023-04-06T12:13:47;5.53;;;4.70;;
44000;SDS011;29660;42.892;24.710;2023-04-06T12:19:09;4.97;;;4.47;;
44000;SDS011;29660;42.892;24.710;2023-04-06T12:24:31;10.07;;;8.52;;
44000;SDS011;29660;42.892;24.710;2023-04-06T12:29:53;6.15;;;5.45;;
44000;SDS011;29660;42.892;24.710;2023-04-06T12:35:17;9.82;;;7.90;;
44000;SDS011;29660;42.892;24.710;2023-04-06T12:40:39;13.02;;;10.25;;
44000;SDS011;29660;42.892;24.710;2023-04-06T12:46:01;10.35;;;7.70;;
44000;SDS011;29660;42.892;24.710;2023-04-06T12:51:24;16.75;;;12.60;;
44000;SDS011;29660;42.892;24.710;2023-04-06T12:56:49;5.55;;;5.05;;
44000;SDS011;29660;42.892;24.710;2023-04-06T13:02:11;4.43;;;4.03;;
44000;SDS011;29660;42.892;24.710;2023-04-06T13:07:33;7.55;;;4.78;;
44000;SDS011;29660;42.892;24.710;2023-04-06T13:12:56;10.48;;;9.05;;
44000;SDS011;29660;42.892;24.710;2023-04-06T13:18:18;5.15;;;4.55;;
44000;SDS011;29660;42.892;24.710;2023-04-06T13:23:40;5.75;;;4.97;;
44000;SDS011;29660;42.892;24.710;2023-04-06T13:29:02;5.00;;;4.50;;
44000;SDS011;29660;42.892;24.710;2023-04-06T13:34:25;10.13;;;8.70;;
44000;SDS011;29660;42.892;24.710;2023-04-06T13:40:05;9.90;;;8.35;;
44000;SDS011;29660;42.892;24.710;2023-04-06T13:45:28;29.80;;;22.77;;
44000;SDS011;29660;42.892;24.710;2023-04-06T13:50:50;27.90;;;21.50;;
44000;SDS011;29660;42.892;24.710;2023-04-06T13:56:12;9.15;;;8.05;;
44000;SDS011;29660;42.892;24.710;2023-04-06T14:01:34;12.10;;;9.05;;
44000;SDS011;29660;42.892;24.710;2023-04-06T14:06:57;10.00;;;8.52;;
44000;SDS011;29660;42.892;24.710;2023-04-06T14:12:19;6.28;;;5.50;;
44000;SDS011;29660;42.892;24.710;2023-04-06T14:17:42;9.73;;;8.73;;
44000;SDS011;29660;42.892;24.710;2023-04-06T14:23:04;12.73;;;11.15;;
44000;SDS011;29660;42.892;24.710;2023-04-06T14:28:27;19.35;;;16.05;;
44000;SDS011;29660;42.892;24.710;2023-04-06T14:33:49;8.57;;;7.68;;
44000;SDS011;29660;42.892;24.710;2023-04-06T14:39:12;11.13;;;8.63;;
44000;SDS011;29660;42.892;24.710;2023-04-06T14:44:34;10.23;;;9.15;;
44000;SDS011;29660;42.892;24.710;2023-04-06T14:49:58;10.85;;;9.75;;
44000;SDS011;29660;42.892;24.710;2023-04-06T14:55:20;9.50;;;8.30;;
44000;SDS011;29660;42.892;24.710;2023-04-06T15:00:42;15.27;;;11.10;;
44000;SDS011;29660;42.892;24.710;2023-04-06T15:06:04;9.15;;;8.25;;
44000;SDS011;29660;42.892;24.710;2023-04-06T15:11:33;10.97;;;8.17;;
44000;SDS011;29660;42.892;24.710;2023-04-06T15:16:55;14.65;;;11.32;;
44000;SDS011;29660;42.892;24.710;2023-04-06T15:22:17;10.02;;;8.05;;
44000;SDS011;29660;42.892;24.710;2023-04-06T15:27:39;11.20;;;9.30;;
44000;SDS011;29660;42.892;24.710;2023-04-06T15:33:01;11.35;;;9.88;;
44000;SDS011;29660;42.892;24.710;2023-04-06T15:38:27;9.27;;;8.30;;
44000;SDS011;29660;42.892;24.710;2023-04-06T15:43:50;9.90;;;8.50;;
44000;SDS011;29660;42.892;24.710;2023-04-06T15:49:13;56.17;;;35.72;;
44000;SDS011;29660;42.892;24.710;2023-04-06T15:54:35;10.88;;;8.63;;
44000;SDS011;29660;42.892;24.710;2023-04-06T16:00:22;11.90;;;9.05;;
44000;SDS011;29660;42.892;24.710;2023-04-06T16:05:46;17.50;;;9.88;;
44000;SDS011;29660;42.892;24.710;2023-04-06T16:11:19;29.48;;;16.20;;
44000;SDS011;29660;42.892;24.710;2023-04-06T16:16:42;9.30;;;8.27;;
44000;SDS011;29660;42.892;24.710;2023-04-06T16:22:04;10.23;;;8.88;;
44000;SDS011;29660;42.892;24.710;2023-04-06T16:27:27;17.67;;;12.95;;
44000;SDS011;29660;42.892;24.710;2023-04-06T16:32:49;12.07;;;9.63;;
44000;SDS011;29660;42.892;24.710;2023-04-06T16:38:12;13.93;;;12.50;;
44000;SDS011;29660;42.892;24.710;2023-04-06T16:43:35;58.85;;;35.75;;
44000;SDS011;29660;42.892;24.710;2023-04-06T16:48:58;21.77;;;16.90;;
44000;SDS011;29660;42.892;24.710;2023-04-06T16:54:20;12.45;;;8.48;;
44000;SDS011;29660;42.892;24.710;2023-04-06T16:59:43;27.80;;;20.10;;
44000;SDS011;29660;42.892;24.710;2023-04-06T17:05:05;22.75;;;18.58;;
44000;SDS011;29660;42.892;24.710;2023-04-06T17:10:27;19.90;;;9.23;;
44000;SDS011;29660;42.892;24.710;2023-04-06T17:15:54;24.00;;;16.90;;
44000;SDS011;29660;42.892;24.710;2023-04-06T17:21:16;17.55;;;11.27;;
44000;SDS011;29660;42.892;24.710;2023-04-06T17:26:41;13.13;;;10.88;;
44000;SDS011;29660;42.892;24.710;2023-04-06T17:32:03;12.27;;;9.30;;
44000;SDS011;29660;42.892;24.710;2023-04-06T17:37:25;11.15;;;9.95;;
44000;SDS011;29660;42.892;24.710;2023-04-06T17:42:48;14.57;;;10.27;;
44000;SDS011;29660;42.892;24.710;2023-04-06T17:48:10;11.20;;;9.45;;
44000;SDS011;29660;42.892;24.710;2023-04-06T17:53:32;18.15;;;14.25;;
44000;SDS011;29660;42.892;24.710;2023-04-06T17:58:55;16.92;;;13.55;;
44000;SDS011;29660;42.892;24.710;2023-04-06T18:04:20;24.75;;;19.27;;
44000;SDS011;29660;42.892;24.710;2023-04-06T18:09:42;18.58;;;15.20;;
44000;SDS011;29660;42.892;24.710;2023-04-06T18:15:04;17.13;;;12.40;;
44000;SDS011;29660;42.892;24.710;2023-04-06T18:20:27;18.80;;;12.98;;
44000;SDS011;29660;42.892;24.710;2023-04-06T18:25:49;26.50;;;21.67;;
44000;SDS011;29660;42.892;24.710;2023-04-06T18:31:11;17.98;;;14.20;;
44000;SDS011;29660;42.892;24.710;2023-04-06T18:36:34;17.52;;;10.73;;
44000;SDS011;29660;42.892;24.710;2023-04-06T18:41:56;64.57;;;36.13;;
44000;SDS011;29660;42.892;24.710;2023-04-06T18:47:19;61.97;;;35.35;;
44000;SDS011;29660;42.892;24.710;2023-04-06T18:52:41;32.22;;;20.77;;
44000;SDS011;29660;42.892;24.710;2023-04-06T18:58:03;22.48;;;15.85;;
44000;SDS011;29660;42.892;24.710;2023-04-06T19:03:27;25.95;;;21.25;;
44000;SDS011;29660;42.892;24.710;2023-04-06T19:08:50;26.80;;;19.95;;
44000;SDS011;29660;42.892;24.710;2023-04-06T19:14:12;19.63;;;15.63;;
44000;SDS011;29660;42.892;24.710;2023-04-06T19:19:34;28.98;;;19.35;;
44000;SDS011;29660;42.892;24.710;2023-04-06T19:24:58;17.67;;;14.27;;
44000;SDS011;29660;42.892;24.710;2023-04-06T19:30:20;22.38;;;17.00;;
44000;SDS011;29660;42.892;24.710;2023-04-06T19:35:42;60.97;;;32.58;;
44000;SDS011;29660;42.892;24.710;2023-04-06T19:41:05;14.48;;;11.60;;
44000;SDS011;29660;42.892;24.710;2023-04-06T19:46:27;27.08;;;20.38;;
44000;SDS011;29660;42.892;24.710;2023-04-06T19:51:49;27.92;;;23.00;;
44000;SDS011;29660;42.892;24.710;2023-04-06T19:57:11;16.67;;;13.70;;
44000;SDS011;29660;42.892;24.710;2023-04-06T20:02:34;31.80;;;25.55;;
44000;SDS011;29660;42.892;24.710;2023-04-06T20:07:56;34.40;;;25.67;;
44000;SDS011;29660;42.892;24.710;2023-04-06T20:13:18;30.63;;;24.08;;
44000;SDS011;29660;42.892;24.710;2023-04-06T20:18:41;21.95;;;14.82;;
44000;SDS011;29660;42.892;24.710;2023-04-06T20:24:04;21.60;;;14.13;;
44000;SDS011;29660;42.892;24.710;2023-04-06T20:29:26;20.45;;;15.30;;
44000;SDS011;29660;42.892;24.710;2023-04-06T20:34:48;14.60;;;11.15;;
44000;SDS011;29660;42.892;24.710;2023-04-06T20:40:11;17.80;;;15.65;;
44000;SDS011;29660;42.892;24.710;2023-04-06T20:45:34;17.40;;;14.40;;
44000;SDS011;29660;42.892;24.710;2023-04-06T20:50:59;15.75;;;11.52;;
44000;SDS011;29660;42.892;24.710;2023-04-06T20:56:21;20.45;;;16.05;;
44000;SDS011;29660;42.892;24.710;2023-04-06T21:01:43;15.90;;;11.05;;
44000;SDS011;29660;42.892;24.710;2023-04-06T21:07:06;17.60;;;12.38;;
44000;SDS011;29660;42.892;24.710;2023-04-06T21:12:28;22.90;;;16.40;;
44000;SDS011;29660;42.892;24.710;2023-04-06T21:17:50;26.65;;;18.17;;
44000;SDS011;29660;42.892;24.710;2023-04-06T21:23:13;24.27;;;17.90;;
44000;SDS011;29660;42.892;24.710;2023-04-06T21:28:35;26.70;;;19.52;;
44000;SDS011;29660;42.892;24.710;2023-04-06T21:33:57;46.20;;;29.10;;
44000;SDS011;29660;42.892;24.710;2023-04-06T21:39:19;32.00;;;20.38;;
44000;SDS011;29660;42.892;24.710;2023-04-06T21:44:41;34.22;;;22.48;;
44000;SDS011;29660;42.892;24.710;2023-04-06T21:50:04;33.35;;;21.23;;
44000;SDS011;29660;42.892;24.710;2023-04-06T21:55:26;27.02;;;18.65;;
44000;SDS011;29660;42.892;24.710;2023-04-06T22:00:48;36.42;;;21.95;;
44000;SDS011;29660;42.892;24.710;2023-04-06T22:06:10;17.52;;;12.93;;
44000;SDS011;29660;42.892;24.710;2023-04-06T22:11:32;18.63;;;14.32;;
44000;SDS011;29660;42.892;24.710;2023-04-06T22:16:55;30.85;;;18.02;;
44000;SDS011;29660;42.892;24.710;2023-04-06T22:22:17;26.27;;;17.73;;
44000;SDS011;29660;42.892;24.710;2023-04-06T22:27:39;23.35;;;15.68;;
44000;SDS011;29660;42.892;24.710;2023-04-06T22:33:20;19.80;;;13.95;;
44000;SDS011;29660;42.892;24.710;2023-04-06T22:38:42;24.92;;;17.75;;
44000;SDS011;29660;42.892;24.710;2023-04-06T22:44:05;31.38;;;20.23;;
44000;SDS011;29660;42.892;24.710;2023-04-06T22:49:27;33.88;;;22.77;;
44000;SDS011;29660;42.892;24.710;2023-04-06T22:54:49;24.63;;;16.77;;
44000;SDS011;29660;42.892;24.710;2023-04-06T23:00:11;13.82;;;10.95;;
44000;SDS011;29660;42.892;24.710;2023-04-06T23:05:34;19.63;;;13.38;;
44000;SDS011;29660;42.892;24.710;2023-04-06T23:10:56;23.58;;;15.13;;
44000;SDS011;29660;42.892;24.710;2023-04-06T23:16:18;21.92;;;15.27;;
44000;SDS011;29660;42.892;24.710;2023-04-06T23:21:40;20.90;;;14.95;;
44000;SDS011;29660;42.892;24.710;2023-04-06T23:27:21;16.42;;;12.48;;
44000;SDS011;29660;42.892;24.710;2023-04-06T23:32:43;14.27;;;11.73;;
44000;SDS011;29660;42.892;24.710;2023-04-06T23:38:05;17.25;;;11.63;;
44000;SDS011;29660;42.892;24.710;2023-04-06T23:43:27;32.22;;;21.58;;
44000;SDS011;29660;42.892;24.710;2023-04-06T23:48:49;29.23;;;20.33;;
44000;SDS011;29660;42.892;24.710;2023-04-06T23:54:30;32.33;;;21.77;;
44000;SDS011;29660;42.892;24.710;2023-04-06T23:59:52;40.45;;;25.92;;
